sensor_id;sensor_type;location;lat;lon;timestamp;P1;durP1;ratioP1;P2;durP2;ratioP2
42036;SDS011;30340;52.004;5.908;2023-04-29T00:00:00;26.30;;;18.77;;
42036;SDS011;30340;52.004;5.908;2023-04-29T00:02:26;26.13;;;18.75;;
42036;SDS011;30340;52.004;5.908;2023-04-29T00:04:52;25.08;;;16.95;;
42036;SDS011;30340;52.004;5.908;2023-04-29T00:07:18;25.63;;;17.27;;
42036;SDS011;30340;52.004;5.908;2023-04-29T00:09:44;25.10;;;17.40;;
42036;SDS011;30340;52.004;5.908;2023-04-29T00:12:09;24.20;;;17.23;;
42036;SDS011;30340;52.004;5.908;2023-04-29T00:14:35;24.63;;;16.45;;
42036;SDS011;30340;52.004;5.908;2023-04-29T00:17:01;24.52;;;16.95;;
42036;SDS011;30340;52.004;5.908;2023-04-29T00:19:27;23.30;;;15.90;;
42036;SDS011;30340;52.004;5.908;2023-04-29T00:21:53;23.00;;;15.82;;
42036;SDS011;30340;52.004;5.908;2023-04-29T00:24:18;26.98;;;18.17;;
42036;SDS011;30340;52.004;5.908;2023-04-29T00:26:44;24.83;;;16.52;;
42036;SDS011;30340;52.004;5.908;2023-04-29T00:29:10;25.80;;;18.25;;
42036;SDS011;30340;52.004;5.908;2023-04-29T00:31:36;28.63;;;19.02;;
42036;SDS011;30340;52.004;5.908;2023-04-29T00:34:02;29.55;;;20.65;;
42036;SDS011;30340;52.004;5.908;2023-04-29T00:36:27;23.30;;;17.38;;
42036;SDS011;30340;52.004;5.908;2023-04-29T00:38:53;24.13;;;18.10;;
42036;SDS011;30340;52.004;5.908;2023-04-29T00:41:19;24.70;;;17.73;;
42036;SDS011;30340;52.004;5.908;2023-04-29T00:43:45;24.90;;;17.00;;
42036;SDS011;30340;52.004;5.908;2023-04-29T00:46:10;24.35;;;17.33;;
42036;SDS011;30340;52.004;5.908;2023-04-29T00:48:36;28.23;;;19.63;;
42036;SDS011;30340;52.004;5.908;2023-04-29T00:51:02;23.48;;;15.95;;
42036;SDS011;30340;52.004;5.908;2023-04-29T00:53:29;25.58;;;16.70;;
42036;SDS011;30340;52.004;5.908;2023-04-29T00:55:55;24.23;;;16.73;;
42036;SDS011;30340;52.004;5.908;2023-04-29T00:58:21;24.52;;;16.88;;
42036;SDS011;30340;52.004;5.908;2023-04-29T01:00:47;26.70;;;18.08;;
42036;SDS011;30340;52.004;5.908;2023-04-29T01:03:13;22.27;;;15.70;;
42036;SDS011;30340;52.004;5.908;2023-04-29T01:05:39;22.40;;;15.65;;
42036;SDS011;30340;52.004;5.908;2023-04-29T01:11:17;23.92;;;15.77;;
42036;SDS011;30340;52.004;5.908;2023-04-29T01:16:24;21.88;;;14.93;;
42036;SDS011;30340;52.004;5.908;2023-04-29T01:18:59;20.63;;;13.93;;
42036;SDS011;30340;52.004;5.908;2023-04-29T01:21:31;23.23;;;16.45;;
42036;SDS011;30340;52.004;5.908;2023-04-29T01:23:56;21.10;;;14.27;;
42036;SDS011;30340;52.004;5.908;2023-04-29T01:26:22;21.95;;;14.32;;
42036;SDS011;30340;52.004;5.908;2023-04-29T01:31:18;18.38;;;13.20;;
42036;SDS011;30340;52.004;5.908;2023-04-29T01:36:58;21.90;;;15.10;;
42036;SDS011;30340;52.004;5.908;2023-04-29T01:42:29;23.95;;;16.73;;
42036;SDS011;30340;52.004;5.908;2023-04-29T01:45:14;23.25;;;15.02;;
42036;SDS011;30340;52.004;5.908;2023-04-29T01:47:43;25.40;;;16.23;;
42036;SDS011;30340;52.004;5.908;2023-04-29T01:50:10;24.55;;;15.63;;
42036;SDS011;30340;52.004;5.908;2023-04-29T01:52:35;22.40;;;14.98;;
42036;SDS011;30340;52.004;5.908;2023-04-29T01:55:01;20.80;;;14.10;;
42036;SDS011;30340;52.004;5.908;2023-04-29T01:57:27;25.50;;;15.93;;
42036;SDS011;30340;52.004;5.908;2023-04-29T01:59:53;21.67;;;14.65;;
42036;SDS011;30340;52.004;5.908;2023-04-29T02:02:19;22.77;;;14.90;;
42036;SDS011;30340;52.004;5.908;2023-04-29T02:04:47;22.50;;;14.82;;
42036;SDS011;30340;52.004;5.908;2023-04-29T02:07:13;21.52;;;14.02;;
42036;SDS011;30340;52.004;5.908;2023-04-29T02:09:39;20.27;;;13.70;;
42036;SDS011;30340;52.004;5.908;2023-04-29T02:12:04;18.35;;;12.60;;
42036;SDS011;30340;52.004;5.908;2023-04-29T02:14:30;20.83;;;13.82;;
42036;SDS011;30340;52.004;5.908;2023-04-29T02:16:56;16.17;;;11.48;;
42036;SDS011;30340;52.004;5.908;2023-04-29T02:19:21;16.77;;;11.55;;
42036;SDS011;30340;52.004;5.908;2023-04-29T02:21:47;18.85;;;13.15;;
42036;SDS011;30340;52.004;5.908;2023-04-29T02:24:12;17.50;;;13.05;;
42036;SDS011;30340;52.004;5.908;2023-04-29T02:26:38;18.15;;;12.98;;
42036;SDS011;30340;52.004;5.908;2023-04-29T02:29:03;21.02;;;13.05;;
42036;SDS011;30340;52.004;5.908;2023-04-29T02:31:29;18.45;;;13.02;;
42036;SDS011;30340;52.004;5.908;2023-04-29T02:33:54;16.67;;;11.88;;
42036;SDS011;30340;52.004;5.908;2023-04-29T02:36:20;17.88;;;12.27;;
42036;SDS011;30340;52.004;5.908;2023-04-29T02:38:46;18.90;;;12.32;;
42036;SDS011;30340;52.004;5.908;2023-04-29T02:41:17;17.80;;;12.27;;
42036;SDS011;30340;52.004;5.908;2023-04-29T02:43:43;17.60;;;12.10;;
42036;SDS011;30340;52.004;5.908;2023-04-29T02:46:09;18.45;;;13.77;;
42036;SDS011;30340;52.004;5.908;2023-04-29T02:48:34;17.35;;;12.13;;
42036;SDS011;30340;52.004;5.908;2023-04-29T02:51:01;18.65;;;12.13;;
42036;SDS011;30340;52.004;5.908;2023-04-29T02:53:27;21.45;;;13.25;;
42036;SDS011;30340;52.004;5.908;2023-04-29T02:55:52;17.45;;;12.13;;
42036;SDS011;30340;52.004;5.908;2023-04-29T02:58:18;18.80;;;12.52;;
42036;SDS011;30340;52.004;5.908;2023-04-29T03:00:44;17.23;;;11.75;;
42036;SDS011;30340;52.004;5.908;2023-04-29T03:03:09;14.35;;;9.63;;
42036;SDS011;30340;52.004;5.908;2023-04-29T03:05:35;19.73;;;12.18;;
42036;SDS011;30340;52.004;5.908;2023-04-29T03:08:00;16.77;;;10.68;;
42036;SDS011;30340;52.004;5.908;2023-04-29T03:10:28;16.15;;;11.32;;
42036;SDS011;30340;52.004;5.908;2023-04-29T03:12:54;15.77;;;11.48;;
42036;SDS011;30340;52.004;5.908;2023-04-29T03:15:19;18.10;;;12.65;;
42036;SDS011;30340;52.004;5.908;2023-04-29T03:17:46;19.35;;;13.43;;
42036;SDS011;30340;52.004;5.908;2023-04-29T03:20:11;18.58;;;12.77;;
42036;SDS011;30340;52.004;5.908;2023-04-29T03:22:37;21.00;;;13.88;;
42036;SDS011;30340;52.004;5.908;2023-04-29T03:25:03;16.75;;;11.48;;
42036;SDS011;30340;52.004;5.908;2023-04-29T03:27:28;16.30;;;11.68;;
42036;SDS011;30340;52.004;5.908;2023-04-29T03:29:54;20.42;;;13.70;;
42036;SDS011;30340;52.004;5.908;2023-04-29T03:32:20;16.90;;;11.43;;
42036;SDS011;30340;52.004;5.908;2023-04-29T03:34:46;18.98;;;13.23;;
42036;SDS011;30340;52.004;5.908;2023-04-29T03:37:13;17.98;;;12.65;;
42036;SDS011;30340;52.004;5.908;2023-04-29T03:39:40;18.75;;;12.07;;
42036;SDS011;30340;52.004;5.908;2023-04-29T03:42:06;18.35;;;13.05;;
42036;SDS011;30340;52.004;5.908;2023-04-29T03:44:31;19.33;;;12.68;;
42036;SDS011;30340;52.004;5.908;2023-04-29T03:46:57;19.35;;;12.40;;
42036;SDS011;30340;52.004;5.908;2023-04-29T03:49:23;18.08;;;11.88;;
42036;SDS011;30340;52.004;5.908;2023-04-29T03:51:49;18.00;;;11.75;;
42036;SDS011;30340;52.004;5.908;2023-04-29T03:54:15;17.38;;;11.60;;
42036;SDS011;30340;52.004;5.908;2023-04-29T03:56:40;18.77;;;12.13;;
42036;SDS011;30340;52.004;5.908;2023-04-29T03:59:07;18.98;;;13.23;;
42036;SDS011;30340;52.004;5.908;2023-04-29T04:01:32;18.67;;;12.35;;
42036;SDS011;30340;52.004;5.908;2023-04-29T04:03:58;21.38;;;13.88;;
42036;SDS011;30340;52.004;5.908;2023-04-29T04:06:24;18.00;;;12.60;;
42036;SDS011;30340;52.004;5.908;2023-04-29T04:08:50;19.55;;;13.18;;
42036;SDS011;30340;52.004;5.908;2023-04-29T04:11:15;19.50;;;13.45;;
42036;SDS011;30340;52.004;5.908;2023-04-29T04:13:41;22.40;;;14.05;;
42036;SDS011;30340;52.004;5.908;2023-04-29T04:16:10;18.55;;;13.13;;
42036;SDS011;30340;52.004;5.908;2023-04-29T04:18:36;19.75;;;12.68;;
42036;SDS011;30340;52.004;5.908;2023-04-29T04:21:06;17.98;;;12.60;;
42036;SDS011;30340;52.004;5.908;2023-04-29T04:23:32;17.00;;;11.75;;
42036;SDS011;30340;52.004;5.908;2023-04-29T04:25:57;17.63;;;12.52;;
42036;SDS011;30340;52.004;5.908;2023-04-29T04:28:23;21.08;;;13.68;;
42036;SDS011;30340;52.004;5.908;2023-04-29T04:30:48;19.00;;;13.43;;
42036;SDS011;30340;52.004;5.908;2023-04-29T04:33:14;17.98;;;12.38;;
42036;SDS011;30340;52.004;5.908;2023-04-29T04:35:40;17.73;;;11.93;;
42036;SDS011;30340;52.004;5.908;2023-04-29T04:38:06;17.27;;;11.68;;
42036;SDS011;30340;52.004;5.908;2023-04-29T04:40:33;15.63;;;11.60;;
42036;SDS011;30340;52.004;5.908;2023-04-29T04:42:58;17.17;;;12.43;;
42036;SDS011;30340;52.004;5.908;2023-04-29T04:45:24;17.08;;;12.48;;
42036;SDS011;30340;52.004;5.908;2023-04-29T04:47:52;14.43;;;10.90;;
42036;SDS011;30340;52.004;5.908;2023-04-29T04:50:18;16.25;;;12.00;;
42036;SDS011;30340;52.004;5.908;2023-04-29T04:52:44;17.27;;;12.15;;
42036;SDS011;30340;52.004;5.908;2023-04-29T04:55:10;16.83;;;12.18;;
42036;SDS011;30340;52.004;5.908;2023-04-29T04:57:35;16.92;;;12.85;;
42036;SDS011;30340;52.004;5.908;2023-04-29T05:00:01;16.92;;;11.90;;
42036;SDS011;30340;52.004;5.908;2023-04-29T05:02:28;19.00;;;12.90;;
42036;SDS011;30340;52.004;5.908;2023-04-29T05:04:53;16.23;;;12.48;;
42036;SDS011;30340;52.004;5.908;2023-04-29T05:07:19;15.65;;;12.25;;
42036;SDS011;30340;52.004;5.908;2023-04-29T05:09:44;16.35;;;11.05;;
42036;SDS011;30340;52.004;5.908;2023-04-29T05:12:10;14.35;;;10.90;;
42036;SDS011;30340;52.004;5.908;2023-04-29T05:14:36;15.45;;;10.93;;
42036;SDS011;30340;52.004;5.908;2023-04-29T05:17:01;15.85;;;11.35;;
42036;SDS011;30340;52.004;5.908;2023-04-29T05:19:27;14.20;;;10.15;;
42036;SDS011;30340;52.004;5.908;2023-04-29T05:21:52;15.18;;;11.20;;
42036;SDS011;30340;52.004;5.908;2023-04-29T05:24:18;13.38;;;10.70;;
42036;SDS011;30340;52.004;5.908;2023-04-29T05:26:44;15.35;;;11.38;;
42036;SDS011;30340;52.004;5.908;2023-04-29T05:29:10;13.55;;;10.93;;
42036;SDS011;30340;52.004;5.908;2023-04-29T05:31:36;16.63;;;10.90;;
42036;SDS011;30340;52.004;5.908;2023-04-29T05:34:02;14.52;;;11.20;;
42036;SDS011;30340;52.004;5.908;2023-04-29T05:36:31;16.42;;;11.98;;
42036;SDS011;30340;52.004;5.908;2023-04-29T05:38:56;16.88;;;12.25;;
42036;SDS011;30340;52.004;5.908;2023-04-29T05:41:22;16.38;;;11.30;;
42036;SDS011;30340;52.004;5.908;2023-04-29T05:43:49;17.17;;;12.65;;
42036;SDS011;30340;52.004;5.908;2023-04-29T05:46:15;15.35;;;10.65;;
42036;SDS011;30340;52.004;5.908;2023-04-29T05:48:40;17.42;;;11.50;;
42036;SDS011;30340;52.004;5.908;2023-04-29T05:51:06;15.73;;;11.35;;
42036;SDS011;30340;52.004;5.908;2023-04-29T05:53:31;17.00;;;12.23;;
42036;SDS011;30340;52.004;5.908;2023-04-29T05:55:57;14.98;;;11.35;;
42036;SDS011;30340;52.004;5.908;2023-04-29T05:58:23;16.55;;;13.02;;
42036;SDS011;30340;52.004;5.908;2023-04-29T06:00:49;15.32;;;10.77;;
42036;SDS011;30340;52.004;5.908;2023-04-29T06:03:15;14.95;;;11.68;;
42036;SDS011;30340;52.004;5.908;2023-04-29T06:05:41;16.98;;;13.15;;
42036;SDS011;30340;52.004;5.908;2023-04-29T06:08:06;17.80;;;12.70;;
42036;SDS011;30340;52.004;5.908;2023-04-29T06:10:32;17.27;;;12.48;;
42036;SDS011;30340;52.004;5.908;2023-04-29T06:12:58;16.33;;;11.90;;
42036;SDS011;30340;52.004;5.908;2023-04-29T06:15:23;18.20;;;13.65;;
42036;SDS011;30340;52.004;5.908;2023-04-29T06:17:49;16.70;;;12.95;;
42036;SDS011;30340;52.004;5.908;2023-04-29T06:20:15;17.67;;;12.65;;
42036;SDS011;30340;52.004;5.908;2023-04-29T06:22:40;15.38;;;12.18;;
42036;SDS011;30340;52.004;5.908;2023-04-29T06:25:06;15.20;;;11.50;;
42036;SDS011;30340;52.004;5.908;2023-04-29T06:27:32;16.98;;;11.55;;
42036;SDS011;30340;52.004;5.908;2023-04-29T06:29:57;16.58;;;11.35;;
42036;SDS011;30340;52.004;5.908;2023-04-29T06:32:23;16.65;;;12.70;;
42036;SDS011;30340;52.004;5.908;2023-04-29T06:34:48;13.40;;;11.20;;
42036;SDS011;30340;52.004;5.908;2023-04-29T06:37:14;17.63;;;12.52;;
42036;SDS011;30340;52.004;5.908;2023-04-29T06:39:39;16.95;;;12.60;;
42036;SDS011;30340;52.004;5.908;2023-04-29T06:42:05;15.88;;;12.15;;
42036;SDS011;30340;52.004;5.908;2023-04-29T06:44:31;17.27;;;12.02;;
42036;SDS011;30340;52.004;5.908;2023-04-29T06:46:56;16.60;;;11.95;;
42036;SDS011;30340;52.004;5.908;2023-04-29T06:49:22;17.25;;;12.63;;
42036;SDS011;30340;52.004;5.908;2023-04-29T06:51:48;15.40;;;11.82;;
42036;SDS011;30340;52.004;5.908;2023-04-29T06:54:13;16.33;;;12.57;;
42036;SDS011;30340;52.004;5.908;2023-04-29T06:56:39;17.00;;;12.35;;
42036;SDS011;30340;52.004;5.908;2023-04-29T06:59:04;17.45;;;11.80;;
42036;SDS011;30340;52.004;5.908;2023-04-29T07:01:30;16.23;;;12.50;;
42036;SDS011;30340;52.004;5.908;2023-04-29T07:03:55;15.60;;;10.70;;
42036;SDS011;30340;52.004;5.908;2023-04-29T07:06:21;15.55;;;11.20;;
42036;SDS011;30340;52.004;5.908;2023-04-29T07:08:46;15.50;;;10.98;;
42036;SDS011;30340;52.004;5.908;2023-04-29T07:11:12;15.60;;;11.32;;
42036;SDS011;30340;52.004;5.908;2023-04-29T07:13:38;14.93;;;11.48;;
42036;SDS011;30340;52.004;5.908;2023-04-29T07:16:03;18.02;;;11.85;;
42036;SDS011;30340;52.004;5.908;2023-04-29T07:18:29;14.82;;;9.55;;
42036;SDS011;30340;52.004;5.908;2023-04-29T07:20:59;18.20;;;12.23;;
42036;SDS011;30340;52.004;5.908;2023-04-29T07:23:25;14.48;;;10.40;;
42036;SDS011;30340;52.004;5.908;2023-04-29T07:25:51;14.27;;;10.80;;
42036;SDS011;30340;52.004;5.908;2023-04-29T07:28:16;15.30;;;10.60;;
42036;SDS011;30340;52.004;5.908;2023-04-29T07:30:42;14.73;;;10.70;;
42036;SDS011;30340;52.004;5.908;2023-04-29T07:33:08;16.92;;;10.70;;
42036;SDS011;30340;52.004;5.908;2023-04-29T07:35:34;14.90;;;11.65;;
42036;SDS011;30340;52.004;5.908;2023-04-29T07:37:59;13.75;;;10.18;;
42036;SDS011;30340;52.004;5.908;2023-04-29T07:40:25;16.30;;;11.50;;
42036;SDS011;30340;52.004;5.908;2023-04-29T07:42:50;14.40;;;10.07;;
42036;SDS011;30340;52.004;5.908;2023-04-29T07:45:16;13.70;;;10.18;;
42036;SDS011;30340;52.004;5.908;2023-04-29T07:47:41;16.35;;;10.05;;
42036;SDS011;30340;52.004;5.908;2023-04-29T07:50:07;14.82;;;10.27;;
42036;SDS011;30340;52.004;5.908;2023-04-29T07:52:33;12.32;;;9.95;;
42036;SDS011;30340;52.004;5.908;2023-04-29T07:54:58;13.98;;;10.68;;
42036;SDS011;30340;52.004;5.908;2023-04-29T07:57:24;15.82;;;10.30;;
42036;SDS011;30340;52.004;5.908;2023-04-29T07:59:50;13.65;;;9.02;;
42036;SDS011;30340;52.004;5.908;2023-04-29T08:02:17;12.80;;;9.30;;
42036;SDS011;30340;52.004;5.908;2023-04-29T08:04:42;13.40;;;9.93;;
42036;SDS011;30340;52.004;5.908;2023-04-29T08:07:08;10.82;;;8.20;;
42036;SDS011;30340;52.004;5.908;2023-04-29T08:09:34;13.77;;;10.00;;
42036;SDS011;30340;52.004;5.908;2023-04-29T08:12:00;13.93;;;9.30;;
42036;SDS011;30340;52.004;5.908;2023-04-29T08:14:26;13.85;;;8.95;;
42036;SDS011;30340;52.004;5.908;2023-04-29T08:16:51;11.70;;;8.10;;
42036;SDS011;30340;52.004;5.908;2023-04-29T08:19:18;13.82;;;9.30;;
42036;SDS011;30340;52.004;5.908;2023-04-29T08:21:45;13.13;;;9.48;;
42036;SDS011;30340;52.004;5.908;2023-04-29T08:24:11;13.65;;;9.18;;
42036;SDS011;30340;52.004;5.908;2023-04-29T08:26:38;11.00;;;7.45;;
42036;SDS011;30340;52.004;5.908;2023-04-29T08:29:05;8.93;;;6.88;;
42036;SDS011;30340;52.004;5.908;2023-04-29T08:31:30;12.18;;;8.88;;
42036;SDS011;30340;52.004;5.908;2023-04-29T08:33:56;12.85;;;8.90;;
42036;SDS011;30340;52.004;5.908;2023-04-29T08:36:22;11.55;;;8.02;;
42036;SDS011;30340;52.004;5.908;2023-04-29T08:38:48;11.80;;;8.48;;
42036;SDS011;30340;52.004;5.908;2023-04-29T08:41:16;11.02;;;8.35;;
42036;SDS011;30340;52.004;5.908;2023-04-29T08:43:42;9.93;;;7.95;;
42036;SDS011;30340;52.004;5.908;2023-04-29T08:46:08;10.85;;;7.70;;
42036;SDS011;30340;52.004;5.908;2023-04-29T08:48:35;11.00;;;8.38;;
42036;SDS011;30340;52.004;5.908;2023-04-29T08:51:02;12.73;;;8.93;;
42036;SDS011;30340;52.004;5.908;2023-04-29T08:53:27;9.88;;;7.60;;
42036;SDS011;30340;52.004;5.908;2023-04-29T08:55:54;11.07;;;7.10;;
42036;SDS011;30340;52.004;5.908;2023-04-29T08:58:21;10.82;;;7.50;;
42036;SDS011;30340;52.004;5.908;2023-04-29T09:00:50;10.27;;;7.72;;
42036;SDS011;30340;52.004;5.908;2023-04-29T09:03:17;10.63;;;6.60;;
42036;SDS011;30340;52.004;5.908;2023-04-29T09:05:52;10.95;;;8.15;;
42036;SDS011;30340;52.004;5.908;2023-04-29T09:08:20;8.93;;;7.53;;
42036;SDS011;30340;52.004;5.908;2023-04-29T09:10:47;8.35;;;6.22;;
42036;SDS011;30340;52.004;5.908;2023-04-29T09:13:27;10.95;;;7.22;;
42036;SDS011;30340;52.004;5.908;2023-04-29T09:15:54;9.80;;;6.90;;
42036;SDS011;30340;52.004;5.908;2023-04-29T09:21:24;6.78;;;5.45;;
42036;SDS011;30340;52.004;5.908;2023-04-29T09:23:53;8.25;;;6.75;;
42036;SDS011;30340;52.004;5.908;2023-04-29T09:26:20;8.98;;;6.45;;
42036;SDS011;30340;52.004;5.908;2023-04-29T09:29:30;9.20;;;6.68;;
42036;SDS011;30340;52.004;5.908;2023-04-29T09:31:42;8.57;;;5.93;;
42036;SDS011;30340;52.004;5.908;2023-04-29T09:34:08;8.15;;;5.43;;
42036;SDS011;30340;52.004;5.908;2023-04-29T09:36:37;8.55;;;5.88;;
42036;SDS011;30340;52.004;5.908;2023-04-29T09:39:05;8.80;;;5.70;;
42036;SDS011;30340;52.004;5.908;2023-04-29T09:41:35;7.97;;;5.80;;
42036;SDS011;30340;52.004;5.908;2023-04-29T09:44:05;7.28;;;5.35;;
42036;SDS011;30340;52.004;5.908;2023-04-29T09:46:32;6.82;;;4.72;;
42036;SDS011;30340;52.004;5.908;2023-04-29T09:48:58;7.15;;;5.07;;
42036;SDS011;30340;52.004;5.908;2023-04-29T09:51:24;7.65;;;5.43;;
42036;SDS011;30340;52.004;5.908;2023-04-29T09:53:50;9.60;;;5.32;;
42036;SDS011;30340;52.004;5.908;2023-04-29T09:56:15;6.57;;;5.00;;
42036;SDS011;30340;52.004;5.908;2023-04-29T09:58:41;7.97;;;5.32;;
42036;SDS011;30340;52.004;5.908;2023-04-29T10:01:07;5.82;;;4.72;;
42036;SDS011;30340;52.004;5.908;2023-04-29T10:03:34;8.30;;;5.15;;
42036;SDS011;30340;52.004;5.908;2023-04-29T10:06:01;7.28;;;4.80;;
42036;SDS011;30340;52.004;5.908;2023-04-29T10:08:29;5.40;;;4.15;;
42036;SDS011;30340;52.004;5.908;2023-04-29T10:10:57;7.45;;;5.10;;
42036;SDS011;30340;52.004;5.908;2023-04-29T10:13:25;7.05;;;4.95;;
42036;SDS011;30340;52.004;5.908;2023-04-29T10:15:57;5.32;;;4.18;;
42036;SDS011;30340;52.004;5.908;2023-04-29T10:18:36;7.60;;;4.90;;
42036;SDS011;30340;52.004;5.908;2023-04-29T10:21:05;7.20;;;5.35;;
42036;SDS011;30340;52.004;5.908;2023-04-29T10:23:33;8.43;;;4.88;;
42036;SDS011;30340;52.004;5.908;2023-04-29T10:26:00;6.30;;;4.60;;
42036;SDS011;30340;52.004;5.908;2023-04-29T10:28:29;4.80;;;3.97;;
42036;SDS011;30340;52.004;5.908;2023-04-29T10:30:56;5.75;;;3.90;;
42036;SDS011;30340;52.004;5.908;2023-04-29T10:33:28;7.35;;;4.55;;
42036;SDS011;30340;52.004;5.908;2023-04-29T10:35:56;5.30;;;3.72;;
42036;SDS011;30340;52.004;5.908;2023-04-29T10:38:26;6.03;;;4.10;;
42036;SDS011;30340;52.004;5.908;2023-04-29T10:40:57;4.50;;;3.45;;
42036;SDS011;30340;52.004;5.908;2023-04-29T10:43:28;4.93;;;3.80;;
42036;SDS011;30340;52.004;5.908;2023-04-29T10:48:44;4.85;;;3.28;;
42036;SDS011;30340;52.004;5.908;2023-04-29T10:51:10;5.47;;;3.83;;
42036;SDS011;30340;52.004;5.908;2023-04-29T10:53:57;5.78;;;4.00;;
42036;SDS011;30340;52.004;5.908;2023-04-29T10:56:23;6.43;;;4.40;;
42036;SDS011;30340;52.004;5.908;2023-04-29T10:59:03;5.55;;;3.40;;
42036;SDS011;30340;52.004;5.908;2023-04-29T11:01:39;6.35;;;3.90;;
42036;SDS011;30340;52.004;5.908;2023-04-29T11:04:05;5.18;;;3.90;;
42036;SDS011;30340;52.004;5.908;2023-04-29T11:09:07;7.25;;;4.50;;
42036;SDS011;30340;52.004;5.908;2023-04-29T11:14:40;5.80;;;3.90;;
42036;SDS011;30340;52.004;5.908;2023-04-29T11:17:11;6.47;;;3.67;;
42036;SDS011;30340;52.004;5.908;2023-04-29T11:24:48;4.28;;;3.20;;
42036;SDS011;30340;52.004;5.908;2023-04-29T11:27:18;5.43;;;3.80;;
42036;SDS011;30340;52.004;5.908;2023-04-29T11:29:46;5.38;;;3.95;;
42036;SDS011;30340;52.004;5.908;2023-04-29T11:32:14;5.75;;;3.63;;
42036;SDS011;30340;52.004;5.908;2023-04-29T11:34:39;4.63;;;3.40;;
42036;SDS011;30340;52.004;5.908;2023-04-29T11:37:05;4.43;;;3.03;;
42036;SDS011;30340;52.004;5.908;2023-04-29T11:39:34;5.45;;;3.20;;
42036;SDS011;30340;52.004;5.908;2023-04-29T11:42:05;5.53;;;3.42;;
42036;SDS011;30340;52.004;5.908;2023-04-29T11:44:34;4.07;;;3.00;;
42036;SDS011;30340;52.004;5.908;2023-04-29T11:47:01;4.97;;;3.28;;
42036;SDS011;30340;52.004;5.908;2023-04-29T11:49:29;4.55;;;3.00;;
42036;SDS011;30340;52.004;5.908;2023-04-29T11:51:58;4.07;;;3.08;;
42036;SDS011;30340;52.004;5.908;2023-04-29T11:54:30;4.28;;;3.00;;
42036;SDS011;30340;52.004;5.908;2023-04-29T11:56:59;4.47;;;2.67;;
42036;SDS011;30340;52.004;5.908;2023-04-29T11:59:29;4.45;;;3.03;;
42036;SDS011;30340;52.004;5.908;2023-04-29T12:01:56;5.18;;;3.10;;
42036;SDS011;30340;52.004;5.908;2023-04-29T12:04:23;4.32;;;2.80;;
42036;SDS011;30340;52.004;5.908;2023-04-29T12:06:52;3.53;;;2.72;;
42036;SDS011;30340;52.004;5.908;2023-04-29T12:09:21;3.83;;;2.40;;
42036;SDS011;30340;52.004;5.908;2023-04-29T12:11:47;2.80;;;2.40;;
42036;SDS011;30340;52.004;5.908;2023-04-29T12:14:14;3.45;;;2.40;;
42036;SDS011;30340;52.004;5.908;2023-04-29T12:16:40;6.70;;;3.58;;
42036;SDS011;30340;52.004;5.908;2023-04-29T12:19:06;4.45;;;3.15;;
42036;SDS011;30340;52.004;5.908;2023-04-29T12:21:34;5.13;;;3.33;;
42036;SDS011;30340;52.004;5.908;2023-04-29T12:24:01;3.97;;;3.00;;
42036;SDS011;30340;52.004;5.908;2023-04-29T12:26:27;4.70;;;3.10;;
42036;SDS011;30340;52.004;5.908;2023-04-29T12:28:56;4.78;;;2.95;;
42036;SDS011;30340;52.004;5.908;2023-04-29T12:31:23;4.95;;;3.00;;
42036;SDS011;30340;52.004;5.908;2023-04-29T12:33:55;4.50;;;2.38;;
42036;SDS011;30340;52.004;5.908;2023-04-29T12:36:21;3.67;;;2.30;;
42036;SDS011;30340;52.004;5.908;2023-04-29T12:38:47;3.03;;;2.22;;
42036;SDS011;30340;52.004;5.908;2023-04-29T12:41:13;3.92;;;2.60;;
42036;SDS011;30340;52.004;5.908;2023-04-29T12:43:41;4.45;;;3.05;;
42036;SDS011;30340;52.004;5.908;2023-04-29T12:46:07;4.97;;;3.05;;
42036;SDS011;30340;52.004;5.908;2023-04-29T12:48:34;2.97;;;2.45;;
42036;SDS011;30340;52.004;5.908;2023-04-29T12:51:10;4.30;;;3.17;;
42036;SDS011;30340;52.004;5.908;2023-04-29T12:53:36;4.63;;;2.95;;
42036;SDS011;30340;52.004;5.908;2023-04-29T12:56:01;3.58;;;2.30;;
42036;SDS011;30340;52.004;5.908;2023-04-29T12:58:28;6.20;;;2.80;;
42036;SDS011;30340;52.004;5.908;2023-04-29T13:00:54;3.47;;;2.60;;
42036;SDS011;30340;52.004;5.908;2023-04-29T13:03:20;5.25;;;2.63;;
42036;SDS011;30340;52.004;5.908;2023-04-29T13:05:45;3.38;;;2.35;;
42036;SDS011;30340;52.004;5.908;2023-04-29T13:08:15;5.32;;;3.10;;
42036;SDS011;30340;52.004;5.908;2023-04-29T13:10:40;4.28;;;2.83;;
42036;SDS011;30340;52.004;5.908;2023-04-29T13:13:06;5.60;;;2.75;;
42036;SDS011;30340;52.004;5.908;2023-04-29T13:15:33;4.32;;;2.80;;
42036;SDS011;30340;52.004;5.908;2023-04-29T13:18:00;3.50;;;2.47;;
42036;SDS011;30340;52.004;5.908;2023-04-29T13:20:26;3.10;;;2.42;;
42036;SDS011;30340;52.004;5.908;2023-04-29T13:22:52;3.80;;;2.42;;
42036;SDS011;30340;52.004;5.908;2023-04-29T13:25:17;3.50;;;2.40;;
42036;SDS011;30340;52.004;5.908;2023-04-29T13:27:43;3.60;;;1.92;;
42036;SDS011;30340;52.004;5.908;2023-04-29T13:30:08;3.55;;;2.50;;
42036;SDS011;30340;52.004;5.908;2023-04-29T13:32:34;2.45;;;2.10;;
42036;SDS011;30340;52.004;5.908;2023-04-29T13:35:01;2.67;;;1.70;;
42036;SDS011;30340;52.004;5.908;2023-04-29T13:37:28;2.67;;;1.90;;
42036;SDS011;30340;52.004;5.908;2023-04-29T13:39:53;2.63;;;1.70;;
42036;SDS011;30340;52.004;5.908;2023-04-29T13:42:19;3.80;;;1.85;;
42036;SDS011;30340;52.004;5.908;2023-04-29T13:44:44;2.20;;;1.60;;
42036;SDS011;30340;52.004;5.908;2023-04-29T13:47:10;1.75;;;1.50;;
42036;SDS011;30340;52.004;5.908;2023-04-29T13:49:37;2.25;;;1.60;;
42036;SDS011;30340;52.004;5.908;2023-04-29T13:52:04;2.65;;;1.85;;
42036;SDS011;30340;52.004;5.908;2023-04-29T13:54:30;2.53;;;1.70;;
42036;SDS011;30340;52.004;5.908;2023-04-29T13:56:56;3.47;;;1.75;;
42036;SDS011;30340;52.004;5.908;2023-04-29T13:59:21;2.58;;;1.67;;
42036;SDS011;30340;52.004;5.908;2023-04-29T14:01:47;2.63;;;1.52;;
42036;SDS011;30340;52.004;5.908;2023-04-29T14:04:14;2.00;;;1.52;;
42036;SDS011;30340;52.004;5.908;2023-04-29T14:06:41;3.15;;;1.50;;
42036;SDS011;30340;52.004;5.908;2023-04-29T14:09:07;2.65;;;1.70;;
42036;SDS011;30340;52.004;5.908;2023-04-29T14:11:33;2.22;;;1.60;;
42036;SDS011;30340;52.004;5.908;2023-04-29T14:14:00;2.35;;;1.92;;
42036;SDS011;30340;52.004;5.908;2023-04-29T14:16:26;2.13;;;1.60;;
42036;SDS011;30340;52.004;5.908;2023-04-29T14:18:53;3.63;;;2.10;;
42036;SDS011;30340;52.004;5.908;2023-04-29T14:21:19;3.40;;;1.60;;
42036;SDS011;30340;52.004;5.908;2023-04-29T14:23:46;2.20;;;1.80;;
42036;SDS011;30340;52.004;5.908;2023-04-29T14:26:12;3.28;;;2.20;;
42036;SDS011;30340;52.004;5.908;2023-04-29T14:28:38;4.45;;;1.80;;
42036;SDS011;30340;52.004;5.908;2023-04-29T14:31:03;3.53;;;2.13;;
42036;SDS011;30340;52.004;5.908;2023-04-29T14:33:29;4.75;;;2.13;;
42036;SDS011;30340;52.004;5.908;2023-04-29T14:35:54;3.30;;;1.88;;
42036;SDS011;30340;52.004;5.908;2023-04-29T14:38:20;3.05;;;1.60;;
42036;SDS011;30340;52.004;5.908;2023-04-29T14:40:46;2.55;;;1.80;;
42036;SDS011;30340;52.004;5.908;2023-04-29T14:43:11;2.63;;;1.60;;
42036;SDS011;30340;52.004;5.908;2023-04-29T14:45:37;2.92;;;2.30;;
42036;SDS011;30340;52.004;5.908;2023-04-29T14:48:02;2.25;;;1.90;;
42036;SDS011;30340;52.004;5.908;2023-04-29T14:50:28;3.00;;;1.60;;
42036;SDS011;30340;52.004;5.908;2023-04-29T14:52:54;1.83;;;1.63;;
42036;SDS011;30340;52.004;5.908;2023-04-29T14:55:21;2.38;;;1.80;;
42036;SDS011;30340;52.004;5.908;2023-04-29T14:57:47;2.38;;;1.80;;
42036;SDS011;30340;52.004;5.908;2023-04-29T15:00:13;2.67;;;1.67;;